Alexis Creek, Canada
Current Conditions -  °F | °C
As of 2:00 AM on Sunday 21 Dec 2014 (Local Time) from CYWL Reporting Station
Scattered Clouds Scattered Clouds  
Wind Chill: 32°   Ceiling: Unl
Heat Index: 32°   Visibility: 15mi
Dew Point: 30°   Wind: 3mph
Humidity: 93%   Direction: 140°SE
Pressure: 29.3"   Gusts: NA
Location:  52.08°N, 123.28°W
Report Text: CYWL 211000Z 14003KT 130V260 15SM FEW010 SCT040 M00/M01 A2930 RMK SC1SC3 SC TR PRESRR SLP951
Loading
Personal Weather Stations






























Interactive Weather Map New forecast layout! Learn more

10-Day Weather Forecast

Advertisements
Track Severe Weather on mobile